ARG1617 SBFL-SABE
Flight info
| Callsign | ARG1617 |
|---|---|
| Flight time | N/A |
| Altitude | 32000 |
| Route | UGREV UN857 NELOX UZ53 UMRUD UN741 PAPIX PAPIX2R |
| Aircraft | B738/M-SDE2E3FGHIRWXY/LB1 |
Departure
| Time | 2026-04-28 20:45 |
|---|---|
| Airport | Hercílio Luz International Airport (SBFL) |
Arrival
| Time | N/A |
|---|---|
| Airport | Aeroparque Jorge Newbery (SABE) |
| Time | Latitude | Longitude | Altitude | Speed | Heading |
|---|---|---|---|---|---|
| 2026-04-28 20:27 | -27.67280 | -48.54539 | 28 ft | 0 kts | 212° |
| 2026-04-28 20:35 | -27.67271 | -48.54533 | 28 ft | 3 kts | 212° |
| 2026-04-28 20:35 | -27.67254 | -48.54516 | 28 ft | 4 kts | 261° |
| 2026-04-28 20:35 | -27.67259 | -48.54490 | 28 ft | 4 kts | 301° |
| 2026-04-28 20:36 | -27.67264 | -48.54480 | 28 ft | 0 kts | 301° |
| 2026-04-28 20:40 | -27.67258 | -48.54491 | 28 ft | 5 kts | 301° |
| 2026-04-28 20:40 | -27.67224 | -48.54554 | 28 ft | 14 kts | 301° |
| 2026-04-28 20:41 | -27.67149 | -48.54622 | 28 ft | 16 kts | 355° |
| 2026-04-28 20:41 | -27.67049 | -48.54608 | 28 ft | 16 kts | 329° |
| 2026-04-28 20:41 | -27.66981 | -48.54711 | 26 ft | 18 kts | 307° |
| 2026-04-28 20:41 | -27.66919 | -48.54841 | 26 ft | 20 kts | 297° |
| 2026-04-28 20:42 | -27.66845 | -48.54980 | 26 ft | 21 kts | 304° |
| 2026-04-28 20:42 | -27.66772 | -48.55100 | 27 ft | 15 kts | 317° |
| 2026-04-28 20:42 | -27.66699 | -48.55128 | 27 ft | 3 kts | 346° |
| 2026-04-28 20:42 | -27.66690 | -48.55130 | 27 ft | 2 kts | 346° |
| 2026-04-28 20:43 | -27.66673 | -48.55135 | 27 ft | 3 kts | 345° |
| 2026-04-28 20:43 | -27.66642 | -48.55143 | 27 ft | 6 kts | 350° |
| 2026-04-28 20:43 | -27.66595 | -48.55125 | 27 ft | 9 kts | 29° |
| 2026-04-28 20:43 | -27.66594 | -48.55078 | 28 ft | 0 kts | 121° |
| 2026-04-28 20:44 | -27.66616 | -48.55036 | 25 ft | 30 kts | 121° |
| 2026-04-28 20:44 | -27.66892 | -48.54525 | 29 ft | 119 kts | 122° |
| 2026-04-28 20:44 | -27.67451 | -48.53485 | 201 ft | 179 kts | 120° |
| 2026-04-28 20:45 | -27.68099 | -48.52180 | 868 ft | 203 kts | 118° |
| 2026-04-28 20:45 | -27.68801 | -48.50739 | 1675 ft | 220 kts | 117° |
| 2026-04-28 20:45 | -27.69574 | -48.49167 | 2487 ft | 238 kts | 125° |
| 2026-04-28 20:45 | -27.70916 | -48.47955 | 3238 ft | 262 kts | 158° |
| 2026-04-28 20:46 | -27.72761 | -48.47615 | 4147 ft | 277 kts | 186° |
| 2026-04-28 20:46 | -27.74587 | -48.48230 | 5285 ft | 271 kts | 211° |
| 2026-04-28 20:46 | -27.76256 | -48.49263 | 6112 ft | 276 kts | 211° |
| 2026-04-28 20:46 | -27.77376 | -48.49948 | 6626 ft | 278 kts | 211° |